sensor_id;sensor_type;location;lat;lon;timestamp;temperature;humidity
64561;DHT22;50960;46.838;16.838;2023-06-14T14:55:35;43.90;20.90
64561;DHT22;50960;46.838;16.838;2023-06-14T14:58:03;39.20;23.60
64561;DHT22;50960;46.838;16.838;2023-06-14T15:00:30;43.40;24.60
64561;DHT22;50960;46.838;16.838;2023-06-14T15:02:56;48.10;22.20
64561;DHT22;50960;46.838;16.838;2023-06-14T15:05:22;51.00;20.70
64561;DHT22;50960;46.838;16.838;2023-06-14T15:07:48;52.90;19.90
64561;DHT22;50960;46.838;16.838;2023-06-14T15:10:15;53.60;19.10
64561;DHT22;50960;46.838;16.838;2023-06-14T15:12:41;55.40;18.50
64561;DHT22;50960;46.838;16.838;2023-06-14T15:15:08;55.80;18.10
64561;DHT22;50960;46.838;16.838;2023-06-14T15:17:35;54.50;17.80
64561;DHT22;50960;46.838;16.838;2023-06-14T15:20:01;56.20;17.50
64561;DHT22;50960;46.838;16.838;2023-06-14T15:22:28;56.20;17.30
64561;DHT22;50960;46.838;16.838;2023-06-14T15:24:55;56.60;17.00
64561;DHT22;50960;46.838;16.838;2023-06-14T15:27:21;56.10;16.10
64561;DHT22;50960;46.838;16.838;2023-06-14T15:29:49;55.30;16.80
64561;DHT22;50960;46.838;16.838;2023-06-14T15:32:15;53.40;15.70
64561;DHT22;50960;46.838;16.838;2023-06-14T15:34:43;55.40;17.00
64561;DHT22;50960;46.838;16.838;2023-06-14T15:37:10;56.90;16.00
64561;DHT22;50960;46.838;16.838;2023-06-14T15:39:36;58.10;16.20
64561;DHT22;50960;46.838;16.838;2023-06-14T15:42:04;58.20;16.50
64561;DHT22;50960;46.838;16.838;2023-06-14T15:44:32;58.90;15.70
64561;DHT22;50960;46.838;16.838;2023-06-14T15:46:58;59.30;15.80
64561;DHT22;50960;46.838;16.838;2023-06-14T15:49:24;58.30;15.00
64561;DHT22;50960;46.838;16.838;2023-06-14T15:51:52;55.40;15.20
64561;DHT22;50960;46.838;16.838;2023-06-14T15:54:20;56.70;15.70
64561;DHT22;50960;46.838;16.838;2023-06-14T15:56:48;57.40;15.70
64561;DHT22;50960;46.838;16.838;2023-06-14T15:59:16;58.10;15.70
64561;DHT22;50960;46.838;16.838;2023-06-14T16:01:43;58.30;15.50
64561;DHT22;50960;46.838;16.838;2023-06-14T16:04:11;59.30;15.30
64561;DHT22;50960;46.838;16.838;2023-06-14T16:06:38;58.80;15.20
64561;DHT22;50960;46.838;16.838;2023-06-14T16:09:05;58.40;15.40
64561;DHT22;50960;46.838;16.838;2023-06-14T16:11:31;52.30;16.10
64561;DHT22;50960;46.838;16.838;2023-06-14T16:13:58;52.20;16.80
64561;DHT22;50960;46.838;16.838;2023-06-14T16:16:24;51.90;17.40
64561;DHT22;50960;46.838;16.838;2023-06-14T16:18:50;53.80;17.10
64561;DHT22;50960;46.838;16.838;2023-06-14T16:21:17;51.80;16.10
64561;DHT22;50960;46.838;16.838;2023-06-14T16:23:43;49.70;16.90
64561;DHT22;50960;46.838;16.838;2023-06-14T16:26:11;47.90;18.20
64561;DHT22;50960;46.838;16.838;2023-06-14T16:28:39;49.00;18.50
64561;DHT22;50960;46.838;16.838;2023-06-14T16:31:09;50.80;18.90
64561;DHT22;50960;46.838;16.838;2023-06-14T16:33:37;46.90;17.90
64561;DHT22;50960;46.838;16.838;2023-06-14T16:36:03;45.60;19.50
64561;DHT22;50960;46.838;16.838;2023-06-14T16:38:30;43.40;19.50
64561;DHT22;50960;46.838;16.838;2023-06-14T16:40:56;41.70;20.50
64561;DHT22;50960;46.838;16.838;2023-06-14T16:43:22;41.20;21.30
64561;DHT22;50960;46.838;16.838;2023-06-14T16:45:49;41.10;21.20
64561;DHT22;50960;46.838;16.838;2023-06-14T16:48:15;41.60;21.20
64561;DHT22;50960;46.838;16.838;2023-06-14T16:50:41;41.80;20.90
64561;DHT22;50960;46.838;16.838;2023-06-14T16:53:08;41.70;20.50
64561;DHT22;50960;46.838;16.838;2023-06-14T16:55:34;41.20;20.80
64561;DHT22;50960;46.838;16.838;2023-06-14T16:58:02;40.70;21.10
64561;DHT22;50960;46.838;16.838;2023-06-14T17:00:28;41.80;20.70
64561;DHT22;50960;46.838;16.838;2023-06-14T17:02:55;44.50;19.80
64561;DHT22;50960;46.838;16.838;2023-06-14T17:05:22;46.00;18.90
64561;DHT22;50960;46.838;16.838;2023-06-14T17:07:48;42.80;19.10
64561;DHT22;50960;46.838;16.838;2023-06-14T17:10:15;41.70;21.50
64561;DHT22;50960;46.838;16.838;2023-06-14T17:12:41;40.80;20.60
64561;DHT22;50960;46.838;16.838;2023-06-14T17:15:07;38.40;23.20
64561;DHT22;50960;46.838;16.838;2023-06-14T17:17:34;36.50;23.40
64561;DHT22;50960;46.838;16.838;2023-06-14T17:20:00;35.60;24.60
64561;DHT22;50960;46.838;16.838;2023-06-14T17:22:28;34.80;25.00
64561;DHT22;50960;46.838;16.838;2023-06-14T17:24:54;33.90;25.90
64561;DHT22;50960;46.838;16.838;2023-06-14T17:27:21;33.30;27.00
64561;DHT22;50960;46.838;16.838;2023-06-14T17:29:48;33.80;27.90
64561;DHT22;50960;46.838;16.838;2023-06-14T17:32:14;34.50;26.10
64561;DHT22;50960;46.838;16.838;2023-06-14T17:34:40;33.00;26.80
64561;DHT22;50960;46.838;16.838;2023-06-14T17:37:07;32.10;28.30
64561;DHT22;50960;46.838;16.838;2023-06-14T17:39:33;30.80;29.70
64561;DHT22;50960;46.838;16.838;2023-06-14T17:42:00;31.20;29.90
64561;DHT22;50960;46.838;16.838;2023-06-14T17:44:27;30.50;30.00
64561;DHT22;50960;46.838;16.838;2023-06-14T17:46:53;29.80;30.80
64561;DHT22;50960;46.838;16.838;2023-06-14T17:49:19;29.40;32.10
64561;DHT22;50960;46.838;16.838;2023-06-14T17:51:49;28.70;32.60
64561;DHT22;50960;46.838;16.838;2023-06-14T17:54:15;28.20;34.40
64561;DHT22;50960;46.838;16.838;2023-06-14T17:56:43;30.30;32.90
64561;DHT22;50960;46.838;16.838;2023-06-14T17:59:09;31.90;31.20
64561;DHT22;50960;46.838;16.838;2023-06-14T18:01:36;32.10;29.60
64561;DHT22;50960;46.838;16.838;2023-06-14T18:04:02;31.70;30.00
64561;DHT22;50960;46.838;16.838;2023-06-14T18:06:28;31.00;30.70
64561;DHT22;50960;46.838;16.838;2023-06-14T18:08:55;29.80;32.20
64561;DHT22;50960;46.838;16.838;2023-06-14T18:11:21;29.30;33.50
64561;DHT22;50960;46.838;16.838;2023-06-14T18:13:50;28.40;33.80
64561;DHT22;50960;46.838;16.838;2023-06-14T18:16:18;28.10;34.90
64561;DHT22;50960;46.838;16.838;2023-06-14T18:18:46;27.80;35.50
64561;DHT22;50960;46.838;16.838;2023-06-14T18:21:12;27.40;36.80
64561;DHT22;50960;46.838;16.838;2023-06-14T18:23:38;27.00;37.70
64561;DHT22;50960;46.838;16.838;2023-06-14T18:26:04;26.50;39.10
64561;DHT22;50960;46.838;16.838;2023-06-14T18:28:31;26.10;40.40
64561;DHT22;50960;46.838;16.838;2023-06-14T18:30:57;25.60;41.40
64561;DHT22;50960;46.838;16.838;2023-06-14T18:33:24;25.00;42.60
64561;DHT22;50960;46.838;16.838;2023-06-14T18:35:51;24.40;44.70
64561;DHT22;50960;46.838;16.838;2023-06-14T18:38:17;24.10;46.20
64561;DHT22;50960;46.838;16.838;2023-06-14T18:40:43;23.70;46.80
64561;DHT22;50960;46.838;16.838;2023-06-14T18:43:09;23.30;49.20
64561;DHT22;50960;46.838;16.838;2023-06-14T18:45:37;22.90;50.90
64561;DHT22;50960;46.838;16.838;2023-06-14T18:48:04;22.50;53.00
64561;DHT22;50960;46.838;16.838;2023-06-14T18:50:30;22.20;54.90
64561;DHT22;50960;46.838;16.838;2023-06-14T18:52:56;21.90;56.10
64561;DHT22;50960;46.838;16.838;2023-06-14T18:55:23;21.70;57.50
64561;DHT22;50960;46.838;16.838;2023-06-14T18:57:49;21.40;58.60
64561;DHT22;50960;46.838;16.838;2023-06-14T19:00:16;21.10;60.50
64561;DHT22;50960;46.838;16.838;2023-06-14T19:02:42;21.00;61.80
64561;DHT22;50960;46.838;16.838;2023-06-14T19:05:09;20.80;62.50
64561;DHT22;50960;46.838;16.838;2023-06-14T19:07:35;20.70;63.40
64561;DHT22;50960;46.838;16.838;2023-06-14T19:10:01;20.60;63.20
64561;DHT22;50960;46.838;16.838;2023-06-14T19:12:27;20.50;63.70
64561;DHT22;50960;46.838;16.838;2023-06-14T19:14:54;20.30;65.00
64561;DHT22;50960;46.838;16.838;2023-06-14T19:17:20;20.30;65.70
64561;DHT22;50960;46.838;16.838;2023-06-14T19:19:47;20.20;65.60
64561;DHT22;50960;46.838;16.838;2023-06-14T19:22:13;20.10;66.50
64561;DHT22;50960;46.838;16.838;2023-06-14T19:24:40;20.10;66.40
64561;DHT22;50960;46.838;16.838;2023-06-14T19:27:06;19.90;67.00
64561;DHT22;50960;46.838;16.838;2023-06-14T19:29:33;19.70;66.40
64561;DHT22;50960;46.838;16.838;2023-06-14T19:31:59;19.70;68.50
64561;DHT22;50960;46.838;16.838;2023-06-14T19:34:25;19.60;68.60
64561;DHT22;50960;46.838;16.838;2023-06-14T19:36:52;19.40;69.50
64561;DHT22;50960;46.838;16.838;2023-06-14T19:39:18;19.30;70.80
64561;DHT22;50960;46.838;16.838;2023-06-14T19:41:44;19.30;71.80
64561;DHT22;50960;46.838;16.838;2023-06-14T19:44:11;19.10;73.10
64561;DHT22;50960;46.838;16.838;2023-06-14T19:46:37;19.00;72.40
64561;DHT22;50960;46.838;16.838;2023-06-14T19:49:03;18.90;74.20
64561;DHT22;50960;46.838;16.838;2023-06-14T19:51:30;18.80;75.70
64561;DHT22;50960;46.838;16.838;2023-06-14T19:53:58;18.70;76.90
64561;DHT22;50960;46.838;16.838;2023-06-14T19:56:24;18.60;77.30
64561;DHT22;50960;46.838;16.838;2023-06-14T19:58:50;18.50;79.40
64561;DHT22;50960;46.838;16.838;2023-06-14T20:01:16;18.40;78.70
64561;DHT22;50960;46.838;16.838;2023-06-14T20:03:43;18.30;78.40
64561;DHT22;50960;46.838;16.838;2023-06-14T20:06:10;18.30;78.70
64561;DHT22;50960;46.838;16.838;2023-06-14T20:08:37;18.30;80.40
64561;DHT22;50960;46.838;16.838;2023-06-14T20:11:03;18.10;81.00
64561;DHT22;50960;46.838;16.838;2023-06-14T20:13:29;18.10;81.40
64561;DHT22;50960;46.838;16.838;2023-06-14T20:15:56;17.90;82.30
64561;DHT22;50960;46.838;16.838;2023-06-14T20:18:23;17.90;83.10
64561;DHT22;50960;46.838;16.838;2023-06-14T20:20:50;17.90;85.10
64561;DHT22;50960;46.838;16.838;2023-06-14T20:23:17;17.80;85.50
64561;DHT22;50960;46.838;16.838;2023-06-14T20:25:43;17.80;85.50
64561;DHT22;50960;46.838;16.838;2023-06-14T20:28:10;17.70;86.60
64561;DHT22;50960;46.838;16.838;2023-06-14T20:30:36;17.60;87.40
64561;DHT22;50960;46.838;16.838;2023-06-14T20:33:02;17.40;88.20
64561;DHT22;50960;46.838;16.838;2023-06-14T20:35:29;17.40;88.80
64561;DHT22;50960;46.838;16.838;2023-06-14T20:37:55;17.40;90.00
64561;DHT22;50960;46.838;16.838;2023-06-14T20:40:23;17.40;89.50
64561;DHT22;50960;46.838;16.838;2023-06-14T20:42:49;17.20;89.60
64561;DHT22;50960;46.838;16.838;2023-06-14T20:45:16;17.20;89.80
64561;DHT22;50960;46.838;16.838;2023-06-14T20:47:43;17.00;90.20
64561;DHT22;50960;46.838;16.838;2023-06-14T20:50:10;16.90;90.40
64561;DHT22;50960;46.838;16.838;2023-06-14T20:52:41;16.90;90.60
64561;DHT22;50960;46.838;16.838;2023-06-14T20:55:08;16.80;90.80
64561;DHT22;50960;46.838;16.838;2023-06-14T20:57:35;16.80;91.10
64561;DHT22;50960;46.838;16.838;2023-06-14T21:00:03;16.70;91.30
64561;DHT22;50960;46.838;16.838;2023-06-14T21:02:37;16.70;91.60
64561;DHT22;50960;46.838;16.838;2023-06-14T21:05:05;16.60;92.00
64561;DHT22;50960;46.838;16.838;2023-06-14T21:07:32;16.90;94.70
64561;DHT22;50960;46.838;16.838;2023-06-14T21:09:58;16.60;94.10
64561;DHT22;50960;46.838;16.838;2023-06-14T21:12:25;16.70;95.30
64561;DHT22;50960;46.838;16.838;2023-06-14T21:14:51;16.60;95.70
64561;DHT22;50960;46.838;16.838;2023-06-14T21:17:17;16.70;94.50
64561;DHT22;50960;46.838;16.838;2023-06-14T21:19:44;16.60;94.80
64561;DHT22;50960;46.838;16.838;2023-06-14T21:22:10;16.40;95.30
64561;DHT22;50960;46.838;16.838;2023-06-14T21:24:37;16.20;93.70
64561;DHT22;50960;46.838;16.838;2023-06-14T21:27:04;16.10;94.00
64561;DHT22;50960;46.838;16.838;2023-06-14T21:29:30;16.20;94.60
64561;DHT22;50960;46.838;16.838;2023-06-14T21:31:56;16.10;95.00
64561;DHT22;50960;46.838;16.838;2023-06-14T21:34:23;16.10;95.00
64561;DHT22;50960;46.838;16.838;2023-06-14T21:36:49;16.10;95.00
64561;DHT22;50960;46.838;16.838;2023-06-14T21:39:19;16.10;95.20
64561;DHT22;50960;46.838;16.838;2023-06-14T21:41:46;16.00;95.20
64561;DHT22;50960;46.838;16.838;2023-06-14T21:44:12;15.90;95.40
64561;DHT22;50960;46.838;16.838;2023-06-14T21:46:38;15.90;96.10
64561;DHT22;50960;46.838;16.838;2023-06-14T21:49:04;15.80;96.40
64561;DHT22;50960;46.838;16.838;2023-06-14T21:51:31;15.70;97.00
64561;DHT22;50960;46.838;16.838;2023-06-14T21:53:57;15.40;97.40
64561;DHT22;50960;46.838;16.838;2023-06-14T21:56:23;15.40;97.70
64561;DHT22;50960;46.838;16.838;2023-06-14T21:58:50;15.50;97.70
64561;DHT22;50960;46.838;16.838;2023-06-14T22:01:16;15.50;97.60
64561;DHT22;50960;46.838;16.838;2023-06-14T22:03:42;15.50;97.70
64561;DHT22;50960;46.838;16.838;2023-06-14T22:06:09;15.40;97.70
64561;DHT22;50960;46.838;16.838;2023-06-14T22:08:35;15.40;98.00
64561;DHT22;50960;46.838;16.838;2023-06-14T22:11:03;15.40;97.90
64561;DHT22;50960;46.838;16.838;2023-06-14T22:13:37;15.30;97.90
64561;DHT22;50960;46.838;16.838;2023-06-14T22:16:07;15.30;98.00
64561;DHT22;50960;46.838;16.838;2023-06-14T22:18:34;15.30;98.20
64561;DHT22;50960;46.838;16.838;2023-06-14T22:21:01;15.30;98.20
64561;DHT22;50960;46.838;16.838;2023-06-14T22:23:28;15.20;98.50
64561;DHT22;50960;46.838;16.838;2023-06-14T22:26:03;15.20;98.80
64561;DHT22;50960;46.838;16.838;2023-06-14T22:28:30;15.30;98.80
64561;DHT22;50960;46.838;16.838;2023-06-14T22:31:08;15.10;98.70
64561;DHT22;50960;46.838;16.838;2023-06-14T22:33:37;15.10;98.10
64561;DHT22;50960;46.838;16.838;2023-06-14T22:36:12;15.10;98.50
64561;DHT22;50960;46.838;16.838;2023-06-14T22:38:42;15.10;98.80
64561;DHT22;50960;46.838;16.838;2023-06-14T22:41:09;15.00;98.90
64561;DHT22;50960;46.838;16.838;2023-06-14T22:43:40;14.90;99.30
64561;DHT22;50960;46.838;16.838;2023-06-14T22:46:10;14.90;99.50
64561;DHT22;50960;46.838;16.838;2023-06-14T22:48:45;14.90;99.40
64561;DHT22;50960;46.838;16.838;2023-06-14T22:51:16;14.70;99.40
64561;DHT22;50960;46.838;16.838;2023-06-14T22:53:43;14.70;99.90
64561;DHT22;50960;46.838;16.838;2023-06-14T22:56:12;14.30;99.90
64561;DHT22;50960;46.838;16.838;2023-06-14T22:58:38;14.70;99.90
64561;DHT22;50960;46.838;16.838;2023-06-14T23:01:08;14.60;99.90
64561;DHT22;50960;46.838;16.838;2023-06-14T23:03:35;14.70;99.90
64561;DHT22;50960;46.838;16.838;2023-06-14T23:06:04;14.70;99.90
64561;DHT22;50960;46.838;16.838;2023-06-14T23:08:34;14.70;99.90
